Bookmark and Share
Track history (hours):
 

Leto

Last reported at 2014-Mar-08 22:26 UTC. Time now 2014-Apr-17 09:50 UTC.
Position N 10°04' W 016°15'.
Warning: this ship's position is 39 days out of date.

Length 225 m; draft 11.1 m.

Type: Cargo ship. MMSI: 311031300.

NotesDate/timePositionNaut miles runAvg speedWind from/ knotsBaromVisibWave heightAir tempDewpointWater temp
2014-Mar-08 22:26N 10°04' W 016°15'1111.1
2014-Mar-08 21:29N 10°04' W 016°04'711.2
2014-Mar-08 20:51N 10°04' W 015°57'311.2
2014-Mar-08 20:33N 10°04' W 015°53'1111.3
2014-Mar-08 19:33N 10°04' W 015°42'1010.4
2014-Mar-08 18:33N 10°04' W 015°31'1211.5
2014-Mar-08 17:33N 10°05' W 015°19'1511.8
2014-Mar-08 16:15N 10°11' W 015°05'1212.0
2014-Mar-08 15:16N 10°16' W 014°54'28 2.8
2014-Mar-08 05:13N 10°39' W 014°38'0 0.0
2014-Mar-07 09:22N 10°38' W 014°38'0 0.0
2014-Mar-07 08:19N 10°38' W 014°38'0 0.2
2014-Mar-07 07:07N 10°38' W 014°38'0 0.0
2014-Mar-07 06:33N 10°38' W 014°38'0 0.0
2014-Mar-07 05:26N 10°38' W 014°38'0 0.0
2014-Mar-07 01:17N 10°38' W 014°38'0 0.2
2014-Mar-07 00:14N 10°38' W 014°38'0 0.0
2014-Mar-06 23:32N 10°38' W 014°38'0 0.0
2014-Mar-06 10:32N 10°38' W 014°38'0 0.1
2014-Mar-06 05:05N 10°38' W 014°38'0 0.0
2014-Mar-06 04:20N 10°38' W 014°38'0 0.0
2014-Mar-06 03:20N 10°38' W 014°38'0 0.0
2014-Mar-06 02:23N 10°38' W 014°38'0 0.0
2014-Mar-06 01:33N 10°38' W 014°38'6 6.2
2014-Mar-06 00:34N 10°33' W 014°42'8 7.6
2014-Mar-05 23:33N 10°26' W 014°45'1 1.0
2014-Mar-05 22:33N 10°25' W 014°46'0 0.0
2014-Mar-05 21:33N 10°25' W 014°46'0 0.0
2014-Mar-05 20:33N 10°25' W 014°46'0 0.1
2014-Mar-05 18:33N 10°25' W 014°46'0 0.1
2014-Mar-05 17:33N 10°25' W 014°46'0 0.0
2014-Mar-05 15:27N 10°25' W 014°46'0 0.1
2014-Mar-05 13:33N 10°25' W 014°46'0 0.0
2014-Mar-05 11:33N 10°25' W 014°46'0 0.0
2014-Mar-05 10:15N 10°25' W 014°46'0 0.0
2014-Mar-05 04:33N 10°25' W 014°46'0 0.0
2014-Mar-05 02:09N 10°25' W 014°46'0 0.1
2014-Mar-05 01:27N 10°25' W 014°46'0 0.2
2014-Mar-05 00:33N 10°25' W 014°46'0 0.0
2014-Mar-04 23:30N 10°25' W 014°46'0 0.0
2014-Mar-04 22:30N 10°25' W 014°46'0 0.0
2014-Mar-04 21:33N 10°25' W 014°46'0 0.0
2014-Mar-04 20:33N 10°25' W 014°46'0 0.0
2014-Mar-04 19:33N 10°25' W 014°46'0 0.1
2014-Mar-04 18:33N 10°25' W 014°46'0 0.2
2014-Mar-04 17:33N 10°25' W 014°46'0 0.0
2014-Mar-04 15:21N 10°25' W 014°46'0 0.0
2014-Mar-04 14:33N 10°25' W 014°46'0 0.1
2014-Mar-04 13:33N 10°25' W 014°46'0 0.1
2014-Mar-04 11:24N 10°25' W 014°46'0 0.0
2014-Mar-04 10:12N 10°25' W 014°46'0 0.0
2014-Mar-04 04:18N 10°25' W 014°46'0 0.0
2014-Mar-04 02:30N 10°25' W 014°46'0 0.0
2014-Mar-04 01:21N 10°25' W 014°46'0 0.1
2014-Mar-03 23:24N 10°25' W 014°46'0 0.0
2014-Mar-03 22:18N 10°25' W 014°46'0 0.0
2014-Mar-03 21:21N 10°25' W 014°46'0 0.0
2014-Mar-03 20:33N 10°25' W 014°46'0 0.0
2014-Mar-03 19:33N 10°25' W 014°46'0 0.0
2014-Mar-03 18:33N 10°25' W 014°46'0 0.1
2014-Mar-03 17:33N 10°25' W 014°46'0 0.1
2014-Mar-03 16:30N 10°25' W 014°46'0 0.0
2014-Mar-03 15:12N 10°25' W 014°46'0 0.0
2014-Mar-03 14:12N 10°25' W 014°46'0 0.1
2014-Mar-03 12:18N 10°25' W 014°46'0 0.2
2014-Mar-03 11:21N 10°25' W 014°46'0 0.0
2014-Mar-03 10:29N 10°25' W 014°46'0 0.0
2014-Mar-03 09:33N 10°25' W 014°46'0 0.0
2014-Mar-03 08:06N 10°25' W 014°46'0 0.1
2014-Mar-03 04:06N 10°25' W 014°46'0 0.0
2014-Mar-03 03:33N 10°25' W 014°46'0 0.0
2014-Mar-03 02:33N 10°25' W 014°46'0 0.0
2014-Mar-03 01:29N 10°25' W 014°46'0 0.0
2014-Mar-03 00:14N 10°25' W 014°46'0 0.3
2014-Mar-02 23:29N 10°25' W 014°46'0 0.1
2014-Mar-02 22:29N 10°25' W 014°46'0 0.0
2014-Mar-02 21:30N 10°25' W 014°46'0 0.0
2014-Mar-02 20:32N 10°25' W 014°46'0 0.0
2014-Mar-02 19:29N 10°25' W 014°46'0 0.0
2014-Mar-02 18:32N 10°25' W 014°46'0 0.0
2014-Mar-02 17:32N 10°25' W 014°46'0 0.1
2014-Mar-02 15:23N 10°25' W 014°46'0 0.0
2014-Mar-02 14:26N 10°25' W 014°46'0 0.0
2014-Mar-02 13:32N 10°25' W 014°46'0 0.1
2014-Mar-02 12:11N 10°25' W 014°46'0 0.1
2014-Mar-02 11:23N 10°25' W 014°46'0 0.2
2014-Mar-02 10:29N 10°25' W 014°46'0 0.0
2014-Mar-02 09:14N 10°25' W 014°46'0 0.0
2014-Mar-02 08:32N 10°25' W 014°46'0 0.0
2014-Mar-02 05:29N 10°25' W 014°46'0 0.1
2014-Mar-02 03:23N 10°25' W 014°46'0 0.0
2014-Mar-02 02:20N 10°25' W 014°46'0 0.0
2014-Mar-02 01:29N 10°25' W 014°46'0 0.0
2014-Mar-02 00:32N 10°25' W 014°46'0 0.0
2014-Mar-01 23:11N 10°25' W 014°46'0 0.3
2014-Mar-01 22:32N 10°25' W 014°46'0 0.1
2014-Mar-01 21:23N 10°25' W 014°46'0 0.0
2014-Mar-01 20:32N 10°25' W 014°46'0 0.0
2014-Mar-01 19:29N 10°25' W 014°46'0 0.0
2014-Mar-01 18:32N 10°25' W 014°46'0 0.0
2014-Mar-01 17:26N 10°25' W 014°46'0 0.1
2014-Mar-01 16:32N 10°25' W 014°46'0 0.1
2014-Mar-01 15:05N 10°25' W 014°46'0 0.0
2014-Mar-01 14:32N 10°25' W 014°46'0 0.0
2014-Mar-01 13:29N 10°25' W 014°46'0 0.0
2014-Mar-01 12:32N 10°25' W 014°46'0 0.0
2014-Mar-01 11:08N 10°25' W 014°46'0 0.0
2014-Mar-01 10:08N 10°25' W 014°46'0 0.2
2014-Mar-01 09:26N 10°25' W 014°46'0 0.0
2014-Feb-28 20:14N 10°25' W 014°46'0 0.0
2014-Feb-28 19:32N 10°25' W 014°46'0 0.0
2014-Feb-28 18:32N 10°25' W 014°46'0 0.0
2014-Feb-28 17:32N 10°25' W 014°46'0 0.0
2014-Feb-28 16:32N 10°25' W 014°46'0 0.1
2014-Feb-28 15:11N 10°25' W 014°46'0 0.1
2014-Feb-28 14:26N 10°25' W 014°46'0 0.0
2014-Feb-28 13:29N 10°25' W 014°46'0 0.0
2014-Feb-28 10:14N 10°25' W 014°46'0 0.2
2014-Feb-28 09:32N 10°25' W 014°46'0 0.2
2014-Feb-28 08:32N 10°25' W 014°46'0 0.0
2014-Feb-28 03:08N 10°25' W 014°46'0 0.1
2014-Feb-28 02:23N 10°25' W 014°46'0 0.1
2014-Feb-28 00:26N 10°25' W 014°46'0 0.1
2014-Feb-27 21:14N 10°25' W 014°46'0 0.0
2014-Feb-27 18:32N 10°25' W 014°46'0 0.0
2014-Feb-27 17:17N 10°25' W 014°46'0 0.0
2014-Feb-27 16:05N 10°25' W 014°46'0 0.0
2014-Feb-27 15:32N 10°25' W 014°46'0 0.1
2014-Feb-27 14:32N 10°25' W 014°46'0 0.1
2014-Feb-27 13:23N 10°25' W 014°46'0 0.0
2014-Feb-27 11:11N 10°25' W 014°46'0 0.1
2014-Feb-27 08:29N 10°25' W 014°46'0 0.1
2014-Feb-27 07:26N 10°25' W 014°46'0 0.0
2014-Feb-27 05:32N 10°25' W 014°46'0 0.0
2014-Feb-27 04:29N 10°25' W 014°46'0 0.0
2014-Feb-27 03:17N 10°25' W 014°46'0 0.0
2014-Feb-27 02:17N 10°25' W 014°46'0 0.2
2014-Feb-27 01:32N 10°25' W 014°46'0 0.1
2014-Feb-26 23:32N 10°25' W 014°46'  

Dump ship's entire track history

sailing weather and tide predictions

Leto — C6YF8 — position and weather